createdAt,value
2023-05-02T00:00:05.804Z,100577.25
2023-05-02T00:03:33.807Z,100570.27
2023-05-02T00:06:42.779Z,100568.84
2023-05-02T00:10:10.638Z,100565.06
2023-05-02T00:13:38.557Z,100565.45
2023-05-02T00:17:06.695Z,100563.39
2023-05-02T00:20:34.941Z,100562.02
2023-05-02T00:24:02.804Z,100560.17
2023-05-02T00:27:30.759Z,100556.63
2023-05-02T00:30:58.759Z,100562.39
2023-05-02T00:34:26.680Z,100561.38
2023-05-02T00:37:54.655Z,100564.82
2023-05-02T00:41:03.612Z,100566.59
2023-05-02T00:44:31.721Z,100570.81
2023-05-02T00:47:59.854Z,100570.23
2023-05-02T00:51:28.009Z,100573.99
2023-05-02T00:54:55.769Z,100574.52
2023-05-02T00:58:04.706Z,100574.05
2023-05-02T01:01:32.795Z,100582.66
2023-05-02T01:05:00.630Z,100581.14
2023-05-02T01:08:28.703Z,100579.84
2023-05-02T01:11:56.653Z,100582.82
2023-05-02T01:15:24.925Z,100579.71
2023-05-02T01:18:14.015Z,100582.91
2023-05-02T01:21:24.035Z,100587.26
2023-05-02T01:24:52.065Z,100584.05
2023-05-02T01:28:20.129Z,100585.80
2023-05-02T01:31:48.071Z,100582.42
2023-05-02T01:35:16.242Z,100583.31
2023-05-02T01:38:44.184Z,100589.02
2023-05-02T01:42:12.055Z,100590.28
2023-05-02T01:45:39.977Z,100591.50
2023-05-02T01:49:08.089Z,100593.66
2023-05-02T01:52:36.361Z,100591.82
2023-05-02T01:56:04.325Z,100594.60
2023-05-02T01:59:32.361Z,100596.36
2023-05-02T02:03:00.254Z,100600.66
2023-05-02T02:06:28.125Z,100597.55
2023-05-02T02:09:56.054Z,100599.62
2023-05-02T02:13:24.045Z,100596.79
2023-05-02T02:16:52.292Z,100598.92
2023-05-02T02:20:20.479Z,100599.59
2023-05-02T02:23:29.884Z,100602.59
2023-05-02T02:26:57.938Z,100605.55
2023-05-02T02:30:25.811Z,100600.10
2023-05-02T02:33:53.651Z,100601.11
2023-05-02T02:37:21.856Z,100602.55
2023-05-02T02:40:49.987Z,100596.81
2023-05-02T02:44:18.106Z,100595.27
2023-05-02T02:47:28.983Z,100596.40
2023-05-02T02:50:57.417Z,100595.38
2023-05-02T02:54:27.307Z,100592.97
2023-05-02T02:57:37.423Z,100597.64
2023-05-02T03:01:05.355Z,100599.48
2023-05-02T03:04:15.077Z,100597.41
2023-05-02T03:07:43.263Z,100596.70
2023-05-02T03:11:11.292Z,100589.97
2023-05-02T03:14:39.058Z,100592.94
2023-05-02T03:18:07.016Z,100593.55
2023-05-02T03:21:16.001Z,100589.70
2023-05-02T03:24:43.787Z,100587.46
2023-05-02T03:28:11.762Z,100593.19
2023-05-02T03:31:39.863Z,100596.19
2023-05-02T03:35:07.718Z,100592.94
2023-05-02T03:38:35.569Z,100595.70
2023-05-02T03:42:03.672Z,100597.77
2023-05-02T03:45:32.206Z,100592.96
2023-05-02T03:49:00.502Z,100592.84
2023-05-02T03:52:28.771Z,100595.42
2023-05-02T03:55:56.705Z,100599.40
2023-05-02T03:59:24.758Z,100599.92
2023-05-02T04:02:52.849Z,100604.05
2023-05-02T04:06:20.557Z,100607.26
2023-05-02T04:09:49.646Z,100600.44
2023-05-02T04:13:17.811Z,100605.90
2023-05-02T04:16:45.804Z,100605.13
2023-05-02T04:20:21.747Z,100607.61
2023-05-02T04:23:49.736Z,100611.35
2023-05-02T04:27:17.564Z,100611.52
2023-05-02T04:30:45.716Z,100610.52
2023-05-02T04:34:15.611Z,100618.83
2023-05-02T04:37:45.781Z,100610.55
2023-05-02T04:41:13.517Z,100616.12
2023-05-02T04:44:42.877Z,100615.14
2023-05-02T04:47:52.472Z,100610.69
2023-05-02T04:51:25.468Z,100611.96
2023-05-02T04:54:34.903Z,100615.74
2023-05-02T04:58:03.277Z,100614.63
2023-05-02T05:01:31.362Z,100610.95
2023-05-02T05:04:59.454Z,100615.14
2023-05-02T05:08:27.447Z,100616.13
2023-05-02T05:11:55.272Z,100620.30
2023-05-02T05:15:23.383Z,100616.34
2023-05-02T05:18:51.874Z,100614.77
2023-05-02T05:22:20.008Z,100618.63
2023-05-02T05:25:28.950Z,100623.53
2023-05-02T05:28:56.746Z,100622.41
2023-05-02T05:32:00.817Z,100629.39
2023-05-02T05:35:28.551Z,100632.77
2023-05-02T05:38:56.551Z,100635.16
2023-05-02T05:42:24.567Z,100635.73
2023-05-02T05:45:52.452Z,100638.35
2023-05-02T05:49:20.554Z,100638.38
2023-05-02T05:52:30.488Z,100640.04
2023-05-02T05:55:58.629Z,100644.46
2023-05-02T05:59:15.155Z,100633.93
2023-05-02T06:02:43.262Z,100634.98
2023-05-02T06:06:10.901Z,100632.52
2023-05-02T06:09:39.016Z,100630.39
2023-05-02T06:12:49.469Z,100632.30
2023-05-02T06:16:17.480Z,100626.23
2023-05-02T06:19:06.261Z,100625.61
2023-05-02T06:22:34.201Z,100625.80
2023-05-02T06:25:23.441Z,100624.19
2023-05-02T06:27:53.164Z,100626.55
2023-05-02T06:31:01.573Z,100623.63
2023-05-02T06:34:29.554Z,100624.95
2023-05-02T06:37:26.435Z,100621.34
2023-05-02T06:40:34.646Z,100616.04
2023-05-02T06:43:23.398Z,100610.84
2023-05-02T06:46:48.313Z,100609.45
2023-05-02T06:49:38.860Z,100611.05
2023-05-02T06:52:43.891Z,100605.80
2023-05-02T06:55:49.485Z,100607.73
2023-05-02T06:59:14.255Z,100608.38
2023-05-02T07:02:34.365Z,100605.42
2023-05-02T07:05:54.583Z,100612.16
2023-05-02T07:09:18.829Z,100609.39
2023-05-02T07:12:43.372Z,100616.52
2023-05-02T07:15:40.059Z,100612.15
2023-05-02T07:18:08.769Z,100612.55
2023-05-02T07:21:06.528Z,100615.03
2023-05-02T07:24:12.873Z,100613.81
2023-05-02T07:27:41.430Z,100615.61
2023-05-02T07:30:49.515Z,100611.65
2023-05-02T07:33:18.984Z,100614.80
2023-05-02T07:36:12.923Z,100613.52
2023-05-02T07:39:20.943Z,100613.64
2023-05-02T07:42:10.005Z,100614.75
2023-05-02T07:45:26.419Z,100619.87
2023-05-02T07:48:17.371Z,100619.95
2023-05-02T07:51:45.062Z,100627.05
2023-05-02T07:54:54.919Z,100627.79
2023-05-02T07:58:25.940Z,100633.73
2023-05-02T08:01:54.016Z,100629.30
2023-05-02T08:04:22.892Z,100633.52
2023-05-02T08:07:50.691Z,100633.09
2023-05-02T08:11:00.513Z,100626.45
2023-05-02T08:14:29.349Z,100627.77
2023-05-02T08:17:20.718Z,100632.88
2023-05-02T08:20:29.847Z,100630.01
2023-05-02T08:23:57.824Z,100630.29
2023-05-02T08:26:44.713Z,100631.76
2023-05-02T08:29:53.850Z,100630.86
2023-05-02T08:33:21.962Z,100631.75
2023-05-02T08:36:50.215Z,100632.73
2023-05-02T08:40:24.661Z,100633.45
2023-05-02T08:43:46.527Z,100631.37
2023-05-02T08:46:54.936Z,100636.92
2023-05-02T08:50:23.756Z,100635.98
2023-05-02T08:53:51.631Z,100631.45
2023-05-02T08:57:19.726Z,100631.79
2023-05-02T09:00:47.634Z,100628.58
2023-05-02T09:04:15.677Z,100627.65
2023-05-02T09:07:31.492Z,100631.38
2023-05-02T09:10:59.594Z,100624.72
2023-05-02T09:13:49.188Z,100627.52
2023-05-02T09:17:19.679Z,100629.50
2023-05-02T09:20:28.380Z,100630.90
2023-05-02T09:23:36.532Z,100627.48
2023-05-02T09:26:52.217Z,100631.60
2023-05-02T09:30:00.485Z,100629.64
2023-05-02T09:32:49.707Z,100627.70
2023-05-02T09:35:59.005Z,100630.02
2023-05-02T09:39:26.955Z,100623.89
2023-05-02T09:42:54.794Z,100635.69
2023-05-02T09:46:03.740Z,100628.16
2023-05-02T09:49:31.677Z,100623.70
2023-05-02T09:52:40.109Z,100621.92
2023-05-02T09:55:49.112Z,100625.48
2023-05-02T09:59:16.867Z,100619.33
2023-05-02T10:02:44.624Z,100614.95
2023-05-02T10:06:12.673Z,100613.02
2023-05-02T10:09:40.533Z,100609.50
2023-05-02T10:13:08.546Z,100603.68
2023-05-02T10:16:36.559Z,100605.25
2023-05-02T10:20:05.416Z,100601.66
2023-05-02T10:23:14.398Z,100601.42
2023-05-02T10:26:24.229Z,100601.45
2023-05-02T10:29:52.233Z,100604.54
2023-05-02T10:32:41.521Z,100604.22
2023-05-02T10:35:51.124Z,100598.39
2023-05-02T10:39:19.053Z,100602.91
2023-05-02T10:42:28.130Z,100602.94
2023-05-02T10:45:56.035Z,100602.66
2023-05-02T10:49:23.784Z,100602.36
2023-05-02T10:52:51.586Z,100601.15
2023-05-02T10:56:19.561Z,100596.20
2023-05-02T10:59:47.356Z,100595.67
2023-05-02T11:02:56.364Z,100595.44
2023-05-02T11:05:53.444Z,100589.49
2023-05-02T11:09:21.354Z,100592.93
2023-05-02T11:12:49.325Z,100593.06
2023-05-02T11:16:17.383Z,100599.28
2023-05-02T11:19:26.296Z,100600.16
2023-05-02T11:22:15.201Z,100593.80
2023-05-02T11:25:43.050Z,100600.12
2023-05-02T11:29:11.421Z,100597.10
2023-05-02T11:32:39.458Z,100596.89
2023-05-02T11:35:48.327Z,100586.83
2023-05-02T11:39:16.239Z,100587.69
2023-05-02T11:42:44.121Z,100589.62
2023-05-02T11:46:12.108Z,100591.39
2023-05-02T11:49:40.226Z,100587.88
2023-05-02T11:53:08.118Z,100580.13
2023-05-02T11:56:16.407Z,100584.94
2023-05-02T11:59:44.182Z,100580.30
2023-05-02T12:02:53.971Z,100580.83
2023-05-02T12:05:42.481Z,100577.27
2023-05-02T12:09:10.659Z,100572.23
2023-05-02T12:12:19.053Z,100563.17
2023-05-02T12:15:27.498Z,100561.36
2023-05-02T12:18:55.505Z,100560.46
2023-05-02T12:22:23.441Z,100557.39
2023-05-02T12:25:51.328Z,100564.43
2023-05-02T12:29:19.183Z,100561.23
2023-05-02T12:32:47.771Z,100561.48
2023-05-02T12:36:15.799Z,100557.80
2023-05-02T12:39:43.718Z,100556.34
2023-05-02T12:43:11.732Z,100554.02
2023-05-02T12:46:39.611Z,100550.33
2023-05-02T12:49:48.960Z,100541.27
2023-05-02T12:53:18.627Z,100547.33
2023-05-02T12:56:08.454Z,100546.65
2023-05-02T12:59:36.228Z,100545.17
2023-05-02T13:03:04.434Z,100541.20
2023-05-02T13:06:28.009Z,100542.46
2023-05-02T13:09:55.927Z,100542.77
2023-05-02T13:12:53.428Z,100538.86
2023-05-02T13:15:41.937Z,100531.10
2023-05-02T13:19:10.086Z,100527.58
2023-05-02T13:22:38.223Z,100530.14
2023-05-02T13:26:06.160Z,100525.42
2023-05-02T13:29:33.770Z,100520.73
2023-05-02T13:33:01.722Z,100518.52
2023-05-02T13:36:29.394Z,100519.52
2023-05-02T13:39:57.449Z,100521.02
2023-05-02T13:43:25.478Z,100514.09
2023-05-02T13:46:15.530Z,100514.95
2023-05-02T13:49:23.715Z,100516.32
2023-05-02T13:52:32.719Z,100512.58
2023-05-02T13:56:00.537Z,100511.30
2023-05-02T13:59:10.255Z,100507.59
2023-05-02T14:01:59.352Z,100509.45
2023-05-02T14:05:15.516Z,100507.90
2023-05-02T14:08:43.334Z,100502.81
2023-05-02T14:12:11.415Z,100508.87
2023-05-02T14:15:19.636Z,100501.42
2023-05-02T14:18:47.649Z,100501.48
2023-05-02T14:21:35.665Z,100502.70
2023-05-02T14:24:44.847Z,100507.08
2023-05-02T14:27:36.804Z,100506.08
2023-05-02T14:31:06.456Z,100505.65
2023-05-02T14:34:15.298Z,100507.17
2023-05-02T14:37:12.270Z,100507.42
2023-05-02T14:40:02.433Z,100508.16
2023-05-02T14:43:30.422Z,100508.73
2023-05-02T14:46:41.412Z,100509.30
2023-05-02T14:49:11.206Z,100512.60
2023-05-02T14:52:00.769Z,100504.30
2023-05-02T14:55:24.560Z,100506.16
2023-05-02T14:58:16.913Z,100505.14
2023-05-02T15:01:08.901Z,100505.60
2023-05-02T15:04:37.099Z,100504.52
2023-05-02T15:08:05.449Z,100505.65
2023-05-02T15:10:54.208Z,100500.02
2023-05-02T15:14:18.344Z,100504.11
2023-05-02T15:17:27.733Z,100500.42
2023-05-02T15:20:56.151Z,100497.73
2023-05-02T15:23:53.972Z,100492.32
2023-05-02T15:27:21.961Z,100497.20
2023-05-02T15:30:49.966Z,100494.34
2023-05-02T15:34:17.863Z,100486.19
2023-05-02T15:37:19.012Z,100486.08
2023-05-02T15:40:47.234Z,100490.52
2023-05-02T15:44:15.297Z,100490.19
2023-05-02T15:47:04.229Z,100495.69
2023-05-02T15:50:13.345Z,100487.17
2023-05-02T15:53:22.196Z,100493.86
2023-05-02T15:56:50.478Z,100488.61
2023-05-02T16:00:18.602Z,100484.77
2023-05-02T16:03:12.133Z,100482.09
2023-05-02T16:05:43.272Z,100480.48
2023-05-02T16:08:55.524Z,100483.25
2023-05-02T16:12:23.921Z,100476.73
2023-05-02T16:15:32.800Z,100472.77
2023-05-02T16:19:00.820Z,100473.84
2023-05-02T16:22:29.103Z,100483.17
2023-05-02T16:25:57.855Z,100490.05
2023-05-02T16:29:25.882Z,100493.78
2023-05-02T16:32:54.110Z,100493.95
2023-05-02T16:36:02.254Z,100486.77
2023-05-02T16:39:30.219Z,100493.13
2023-05-02T16:42:58.294Z,100489.79
2023-05-02T16:45:48.081Z,100494.09
2023-05-02T16:48:17.739Z,100490.71
2023-05-02T16:51:24.025Z,100500.73
2023-05-02T16:53:53.765Z,100504.27
2023-05-02T16:56:43.153Z,100508.27
2023-05-02T16:59:32.469Z,100514.80
2023-05-02T17:02:22.710Z,100516.75
2023-05-02T17:05:13.601Z,100522.55
2023-05-02T17:08:02.488Z,100526.89
2023-05-02T17:11:13.741Z,100524.60
2023-05-02T17:14:25.948Z,100530.20
2023-05-02T17:17:34.611Z,100532.16
2023-05-02T17:20:23.005Z,100533.48
2023-05-02T17:23:27.231Z,100538.59
2023-05-02T17:26:06.864Z,100539.61
2023-05-02T17:28:50.294Z,100542.98
2023-05-02T17:31:23.691Z,100543.52
2023-05-02T17:34:51.786Z,100545.16
2023-05-02T17:38:01.958Z,100551.30
2023-05-02T17:40:50.197Z,100555.23
2023-05-02T17:43:21.281Z,100554.20
2023-05-02T17:46:31.099Z,100562.14
2023-05-02T17:49:58.967Z,100564.70
2023-05-02T17:52:47.872Z,100565.58
2023-05-02T17:55:31.669Z,100567.41
2023-05-02T17:58:41.585Z,100565.16
2023-05-02T18:01:16.036Z,100567.09
2023-05-02T18:04:39.930Z,100573.33
2023-05-02T18:07:11.789Z,100576.39
2023-05-02T18:10:14.004Z,100583.95
2023-05-02T18:13:02.978Z,100581.70
2023-05-02T18:15:59.033Z,100588.08
2023-05-02T18:19:27.297Z,100590.98
2023-05-02T18:22:19.200Z,100591.33
2023-05-02T18:24:48.764Z,100597.16
2023-05-02T18:28:16.651Z,100600.02
2023-05-02T18:31:44.412Z,100603.02
2023-05-02T18:34:38.468Z,100604.21
2023-05-02T18:38:04.142Z,100608.52
2023-05-02T18:41:31.940Z,100611.91
2023-05-02T18:44:41.007Z,100615.77
2023-05-02T18:47:49.551Z,100618.25
2023-05-02T18:50:38.669Z,100619.42
2023-05-02T18:54:07.108Z,100614.69
2023-05-02T18:57:23.336Z,100617.79
2023-05-02T19:00:31.260Z,100621.25
2023-05-02T19:03:44.596Z,100620.45
2023-05-02T19:07:19.488Z,100629.53
2023-05-02T19:10:48.394Z,100628.48
2023-05-02T19:14:16.409Z,100629.05
2023-05-02T19:17:50.071Z,100628.38
2023-05-02T19:21:17.895Z,100631.25
2023-05-02T19:24:45.949Z,100631.75
2023-05-02T19:27:55.809Z,100635.23
2023-05-02T19:31:23.715Z,100634.76
2023-05-02T19:34:32.850Z,100640.34
2023-05-02T19:38:00.802Z,100643.02
2023-05-02T19:41:11.530Z,100650.39
2023-05-02T19:44:39.397Z,100653.73
2023-05-02T19:48:02.897Z,100656.38
2023-05-02T19:50:34.409Z,100659.02
2023-05-02T19:53:22.792Z,100661.91
2023-05-02T19:55:55.254Z,100662.46
2023-05-02T19:58:43.786Z,100665.39
2023-05-02T20:02:11.817Z,100666.80
2023-05-02T20:05:39.921Z,100668.87
2023-05-02T20:08:48.684Z,100669.30
2023-05-02T20:11:38.445Z,100670.16
2023-05-02T20:15:06.367Z,100665.05
2023-05-02T20:18:16.446Z,100661.88
2023-05-02T20:21:44.056Z,100664.89
2023-05-02T20:25:11.972Z,100663.52
2023-05-02T20:28:39.928Z,100663.60
2023-05-02T20:31:27.922Z,100663.82
2023-05-02T20:34:15.881Z,100668.23
2023-05-02T20:37:04.971Z,100670.83
2023-05-02T20:40:33.724Z,100668.55
2023-05-02T20:43:23.651Z,100665.10
2023-05-02T20:46:29.399Z,100663.92
2023-05-02T20:49:57.298Z,100666.52
2023-05-02T20:53:07.567Z,100665.59
2023-05-02T20:56:35.856Z,100664.84
2023-05-02T21:00:04.679Z,100660.77
2023-05-02T21:03:32.655Z,100659.59
2023-05-02T21:07:00.631Z,100660.70
2023-05-02T21:10:32.778Z,100660.94
2023-05-02T21:14:01.033Z,100661.63
2023-05-02T21:17:33.081Z,100660.37
2023-05-02T21:21:04.275Z,100661.21
2023-05-02T21:24:32.882Z,100662.54
2023-05-02T21:27:43.876Z,100661.11
2023-05-02T21:30:53.239Z,100662.61
2023-05-02T21:34:21.455Z,100662.67
2023-05-02T21:37:49.625Z,100660.70
2023-05-02T21:41:17.710Z,100664.27
2023-05-02T21:44:25.999Z,100658.19
2023-05-02T21:47:53.778Z,100660.21
2023-05-02T21:51:24.512Z,100653.84
2023-05-02T21:54:52.641Z,100657.21
2023-05-02T21:58:21.078Z,100654.83
2023-05-02T22:01:48.993Z,100660.45
2023-05-02T22:05:16.761Z,100661.02
2023-05-02T22:08:44.756Z,100658.58
2023-05-02T22:12:12.661Z,100660.58
2023-05-02T22:15:40.671Z,100660.88
2023-05-02T22:19:08.453Z,100654.33
2023-05-02T22:22:36.507Z,100657.09
2023-05-02T22:26:04.522Z,100661.83
2023-05-02T22:29:32.509Z,100660.32
2023-05-02T22:33:00.409Z,100661.98
2023-05-02T22:36:28.008Z,100662.18
2023-05-02T22:39:37.054Z,100662.09
2023-05-02T22:43:05.012Z,100661.80
2023-05-02T22:46:13.757Z,100661.08
2023-05-02T22:49:41.766Z,100660.11
2023-05-02T22:53:09.585Z,100657.93
2023-05-02T22:56:37.894Z,100658.15
2023-05-02T23:00:05.989Z,100656.36
2023-05-02T23:03:33.619Z,100664.77
2023-05-02T23:07:01.318Z,100661.86
2023-05-02T23:10:29.390Z,100665.13
2023-05-02T23:13:57.211Z,100668.98
2023-05-02T23:17:05.639Z,100671.18
2023-05-02T23:20:33.343Z,100670.04
2023-05-02T23:24:01.327Z,100667.66
2023-05-02T23:27:09.742Z,100664.73
2023-05-02T23:30:19.874Z,100667.63
2023-05-02T23:33:28.538Z,100666.74
2023-05-02T23:36:56.402Z,100668.95
2023-05-02T23:40:05.459Z,100669.32
2023-05-02T23:43:33.506Z,100670.30
2023-05-02T23:47:01.462Z,100671.23
2023-05-02T23:50:29.228Z,100672.30
2023-05-02T23:53:57.278Z,100671.38
2023-05-02T23:57:25.461Z,100669.98
